Time;durP1;ratioP1;P1;durP2;ratioP2;P2;SDS_P1;SDS_P2;PMS_P1;PMS_P2;Temp;Humidity;BMP_temperature;BMP_pressure;BME280_temperature;BME280_humidity;BME280_pressure;Samples;Min_cycle;Max_cycle;Signal;HPM_P1;HPM_P2
2022/02/18 00:01:48;;;;;;;;;;;;;;;;;;5058550;28;19920;-42
2022/02/18 00:04:14;;;;;;;;;;;;;;;;;;5058337;28;19909;-42
2022/02/18 00:06:39;;;;;;;;;;;;;;;;;;5057481;28;19908;-44
2022/02/18 00:09:04;;;;;;;;;;;;;;;;;;5058473;28;20423;-40
2022/02/18 00:11:29;;;;;;;;;;;;;;;;;;5057210;28;19947;-42
2022/02/18 00:13:56;;;;;;;;;;;;;;;;;;5056283;28;19924;-38
2022/02/18 00:16:21;;;;;;;;;;;;;;;;;;5053690;28;19963;-42
2022/02/18 00:18:46;;;;;;;;;;;;;;;;;;5057350;28;19951;-40
2022/02/18 00:21:13;;;;;;;;;;;;;;;;;;5056150;28;20637;-43
2022/02/18 00:23:38;;;;;;;;;;;;;;;;;;5056806;28;20119;-41
2022/02/18 00:26:03;;;;;;;;;;;;;;;;;;5054398;28;19988;-40
2022/02/18 00:28:28;;;;;;;;;;;;;;;;;;5054951;28;19912;-39
2022/02/18 00:30:54;;;;;;;;;;;;;;;;;;5054097;28;19998;-40
2022/02/18 00:33:19;;;;;;;;;;;;;;;;;;5055284;28;19923;-38
2022/02/18 00:35:44;;;;;;;;;;;;;;;;;;5053547;28;19964;-41
2022/02/18 00:38:09;;;;;;;;;;;;;;;;;;5069878;28;19919;-40
2022/02/18 00:40:35;;;;;;;;;;;;;;;;;;5056819;28;20021;-40
2022/02/18 00:43:00;;;;;;;;;;;;;;;;;;5054236;28;19955;-40
2022/02/18 00:45:25;;;;;;;;;;;;;;;;;;5056482;28;20370;-40
2022/02/18 00:47:50;;;;;;;;;;;;;;;;;;5057820;28;19956;-39
2022/02/18 00:50:15;;;;;;;;;;;;;;;;;;5053665;28;20255;-42
2022/02/18 00:52:40;;;;;;;;;;;;;;;;;;5055633;28;19986;-40
2022/02/18 00:55:06;;;;;;;;;;;;;;;;;;5055526;28;19917;-44
2022/02/18 00:57:31;;;;;;;;;;;;;;;;;;5051103;28;19921;-46
2022/02/18 00:59:56;;;;;;;;;;;;;;;;;;5053201;28;19921;-40
2022/02/18 01:02:21;;;;;;;;;;;;;;;;;;5055383;28;19917;-42
2022/02/18 01:04:46;;;;;;;;;;;;;;;;;;5054153;28;19912;-40
2022/02/18 01:07:11;;;;;;;;;;;;;;;;;;5055590;28;19912;-41
2022/02/18 01:09:37;;;;;;;;;;;;;;;;;;5053368;28;20631;-42
2022/02/18 01:12:02;;;;;;;;;;;;;;;;;;5052418;28;19916;-40
2022/02/18 01:14:27;;;;;;;;;;;;;;;;;;5051883;28;19924;-41
2022/02/18 01:16:52;;;;;;;;;;;;;;;;;;5055724;28;20347;-40
2022/02/18 01:19:17;;;;;;;;;;;;;;;;;;5050233;28;19917;-38
2022/02/18 01:21:42;;;;;;;;;;;;;;;;;;5055927;28;20574;-39
2022/02/18 01:24:08;;;;;;;;;;;;;;;;;;5056564;28;19922;-38
2022/02/18 01:26:33;;;;;;;;;;;;;;;;;;5053879;28;20352;-39
2022/02/18 01:28:58;;;;;;;;;;;;;;;;;;5054507;28;20430;-39
2022/02/18 01:31:25;;;;;;;;;;;;;;;;;;5049681;28;20006;-42
2022/02/18 01:33:50;;;;;;;;;;;;;;;;;;5051709;28;19919;-40
2022/02/18 01:36:15;;;;;;;;;;;;;;;;;;5053160;28;19913;-41
2022/02/18 01:38:41;;;;;;;;;;;;;;;;;;5051496;28;19935;-41
2022/02/18 01:41:06;;;;;;;;;;;;;;;;;;5052285;28;19962;-41
2022/02/18 01:43:32;;;;;;;;;;;;;;;;;;5055123;28;20602;-40
2022/02/18 01:45:57;;;;;;;;;;;;;;;;;;5054896;28;19912;-39
2022/02/18 01:48:22;;;;;;;;;;;;;;;;;;5051318;28;20255;-42
2022/02/18 01:50:47;;;;;;;;;;;;;;;;;;5053857;28;19920;-41
2022/02/18 01:53:12;;;;;;;;;;;;;;;;;;5054665;28;19919;-41
2022/02/18 01:55:37;;;;;;;;;;;;;;;;;;5055074;28;19947;-38
2022/02/18 01:58:03;;;;;;;;;;;;;;;;;;5051403;28;19912;-40
2022/02/18 02:00:28;;;;;;;;;;;;;;;;;;5050607;28;19942;-37
2022/02/18 02:02:53;;;;;;;;;;;;;;;;;;5053374;28;19912;-42
2022/02/18 02:05:18;;;;;;;;;;;;;;;;;;5054487;28;19956;-44
2022/02/18 02:07:43;;;;;;;;;;;;;;;;;;5052802;28;19912;-41
2022/02/18 02:10:09;;;;;;;;;;;;;;;;;;5050064;28;19924;-40
2022/02/18 02:12:34;;;;;;;;;;;;;;;;;;5050249;28;19916;-42
2022/02/18 02:14:59;;;;;;;;;;;;;;;;;;5052590;28;19912;-38
2022/02/18 02:17:24;;;;;;;;;;;;;;;;;;5055512;28;20284;-42
2022/02/18 02:19:49;;;;;;;;;;;;;;;;;;5054677;28;19919;-39
2022/02/18 02:22:15;;;;;;;;;;;;;;;;;;5052195;28;20362;-41
2022/02/18 02:24:40;;;;;;;;;;;;;;;;;;5051674;28;19913;-39
2022/02/18 02:27:05;;;;;;;;;;;;;;;;;;5049477;28;20303;-40
2022/02/18 02:29:31;;;;;;;;;;;;;;;;;;5055957;28;20395;-39
2022/02/18 02:31:56;;;;;;;;;;;;;;;;;;5052027;28;19916;-40
2022/02/18 02:34:21;;;;;;;;;;;;;;;;;;5053284;28;20345;-39
2022/02/18 02:36:46;;;;;;;;;;;;;;;;;;5051353;28;19979;-41
2022/02/18 02:39:11;;;;;;;;;;;;;;;;;;5051985;28;19912;-42
2022/02/18 02:41:37;;;;;;;;;;;;;;;;;;5060707;28;20068;-41
2022/02/18 02:44:02;;;;;;;;;;;;;;;;;;5055426;28;19920;-41
2022/02/18 02:46:27;;;;;;;;;;;;;;;;;;5053066;28;19913;-43
2022/02/18 02:48:52;;;;;;;;;;;;;;;;;;5056213;28;20463;-40
2022/02/18 02:51:17;;;;;;;;;;;;;;;;;;5060751;28;19931;-39
2022/02/18 02:53:43;;;;;;;;;;;;;;;;;;5055378;28;19912;-43
2022/02/18 02:56:08;;;;;;;;;;;;;;;;;;5056808;28;19999;-41
2022/02/18 02:58:33;;;;;;;;;;;;;;;;;;5054783;28;19954;-41
2022/02/18 03:00:58;;;;;;;;;;;;;;;;;;5056450;28;20559;-38
2022/02/18 03:03:23;;;;;;;;;;;;;;;;;;5057585;28;20587;-40
2022/02/18 03:05:49;;;;;;;;;;;;;;;;;;5057934;28;19966;-39
2022/02/18 03:08:14;;;;;;;;;;;;;;;;;;5057543;28;19913;-40
2022/02/18 03:10:39;;;;;;;;;;;;;;;;;;5057503;28;19956;-43
2022/02/18 03:13:04;;;;;;;;;;;;;;;;;;5059206;28;19917;-39
2022/02/18 03:15:29;;;;;;;;;;;;;;;;;;5056728;28;19913;-38
2022/02/18 03:17:54;;;;;;;;;;;;;;;;;;5059962;28;19913;-38
2022/02/18 03:20:20;;;;;;;;;;;;;;;;;;5057395;28;20377;-39
2022/02/18 03:22:45;;;;;;;;;;;;;;;;;;5058659;28;20387;-38
2022/02/18 03:25:10;;;;;;;;;;;;;;;;;;5056883;28;19912;-41
2022/02/18 03:27:37;;;;;;;;;;;;;;;;;;5057558;28;20287;-42
2022/02/18 03:30:02;;;;;;;;;;;;;;;;;;5053907;28;19960;-42
2022/02/18 03:32:28;;;;;;;;;;;;;;;;;;5053986;28;19952;-39
2022/02/18 03:34:53;;;;;;;;;;;;;;;;;;5057896;28;20338;-40
2022/02/18 03:37:18;;;;;;;;;;;;;;;;;;5056091;28;20004;-40
2022/02/18 03:39:43;;;;;;;;;;;;;;;;;;5058064;28;20330;-38
2022/02/18 03:42:08;;;;;;;;;;;;;;;;;;5058394;28;19920;-38
2022/02/18 03:44:35;;;;;;;;;;;;;;;;;;5058378;28;20342;-39
2022/02/18 03:47:00;;;;;;;;;;;;;;;;;;5055268;28;19938;-39
2022/02/18 03:49:25;;;;;;;;;;;;;;;;;;5057055;28;19925;-38
2022/02/18 03:51:50;;;;;;;;;;;;;;;;;;5055224;28;20284;-39
2022/02/18 03:54:15;;;;;;;;;;;;;;;;;;5055430;28;19999;-39
2022/02/18 03:56:40;;;;;;;;;;;;;;;;;;5054001;28;19912;-41
2022/02/18 03:59:05;;;;;;;;;;;;;;;;;;5056661;28;19913;-40
2022/02/18 04:01:31;;;;;;;;;;;;;;;;;;5053645;28;20279;-41
2022/02/18 04:03:56;;;;;;;;;;;;;;;;;;5057348;28;19916;-40
2022/02/18 04:06:21;;;;;;;;;;;;;;;;;;5051634;28;19999;-39
2022/02/18 04:08:47;;;;;;;;;;;;;;;;;;5056256;28;20061;-40
2022/02/18 04:11:12;;;;;;;;;;;;;;;;;;5052034;28;19959;-40
2022/02/18 04:13:37;;;;;;;;;;;;;;;;;;5062474;28;19913;-41
2022/02/18 04:16:02;;;;;;;;;;;;;;;;;;5052827;28;19967;-42
2022/02/18 04:18:27;;;;;;;;;;;;;;;;;;5055531;28;19912;-40
2022/02/18 04:20:52;;;;;;;;;;;;;;;;;;5055724;28;20634;-40
2022/02/18 04:23:18;;;;;;;;;;;;;;;;;;5053759;28;19941;-40
2022/02/18 04:25:43;;;;;;;;;;;;;;;;;;5054971;28;20465;-41
2022/02/18 04:28:08;;;;;;;;;;;;;;;;;;5054749;28;20015;-40
2022/02/18 04:30:33;;;;;;;;;;;;;;;;;;5052626;28;19917;-40
2022/02/18 04:32:58;;;;;;;;;;;;;;;;;;5057549;28;20058;-42
2022/02/18 04:35:24;;;;;;;;;;;;;;;;;;5055917;28;19966;-40
2022/02/18 04:37:49;;;;;;;;;;;;;;;;;;5051907;28;19924;-40
2022/02/18 04:40:14;;;;;;;;;;;;;;;;;;5051832;28;20287;-41
2022/02/18 04:42:39;;;;;;;;;;;;;;;;;;5058022;28;19971;-39
2022/02/18 04:45:04;;;;;;;;;;;;;;;;;;5057422;28;20034;-39
2022/02/18 04:47:29;;;;;;;;;;;;;;;;;;5053729;28;19983;-40
2022/02/18 04:49:54;;;;;;;;;;;;;;;;;;5055147;28;19924;-40
2022/02/18 04:52:20;;;;;;;;;;;;;;;;;;5053425;28;20461;-38
2022/02/18 04:54:45;;;;;;;;;;;;;;;;;;5059705;28;19913;-39
2022/02/18 04:57:10;;;;;;;;;;;;;;;;;;5057703;28;19908;-39
2022/02/18 04:59:35;;;;;;;;;;;;;;;;;;5055312;28;19924;-39
2022/02/18 05:02:00;;;;;;;;;;;;;;;;;;5057336;28;20302;-40
2022/02/18 05:04:26;;;;;;;;;;;;;;;;;;5054460;28;19908;-42
2022/02/18 05:06:51;;;;;;;;;;;;;;;;;;5055151;28;20356;-41
2022/02/18 05:09:16;;;;;;;;;;;;;;;;;;5059666;28;19989;-40
2022/02/18 05:11:41;;;;;;;;;;;;;;;;;;5057538;28;20342;-39
2022/02/18 05:14:06;;;;;;;;;;;;;;;;;;5057008;28;20589;-38
2022/02/18 05:16:31;;;;;;;;;;;;;;;;;;5056150;28;19961;-40
2022/02/18 05:18:58;;;;;;;;;;;;;;;;;;5053904;28;19920;-39
2022/02/18 05:21:23;;;;;;;;;;;;;;;;;;5056571;28;19916;-38
2022/02/18 05:23:48;;;;;;;;;;;;;;;;;;5055828;28;19917;-43
2022/02/18 05:26:13;;;;;;;;;;;;;;;;;;5059819;28;19913;-41
2022/02/18 05:28:39;;;;;;;;;;;;;;;;;;5055101;28;19917;-39
2022/02/18 05:31:04;;;;;;;;;;;;;;;;;;5055001;28;19952;-40
2022/02/18 05:33:29;;;;;;;;;;;;;;;;;;5055060;28;19916;-39
2022/02/18 05:35:54;;;;;;;;;;;;;;;;;;5055003;28;20256;-40
2022/02/18 05:38:19;;;;;;;;;;;;;;;;;;5056953;28;19947;-41
2022/02/18 05:40:44;;;;;;;;;;;;;;;;;;5057069;28;19913;-44
2022/02/18 05:43:10;;;;;;;;;;;;;;;;;;5059945;28;20360;-40
2022/02/18 05:45:35;;;;;;;;;;;;;;;;;;5059400;28;19974;-42
2022/02/18 05:48:00;;;;;;;;;;;;;;;;;;5056223;28;20066;-40
2022/02/18 05:50:25;;;;;;;;;;;;;;;;;;5055690;28;19921;-39
2022/02/18 05:52:50;;;;;;;;;;;;;;;;;;5056497;28;20357;-37
2022/02/18 05:55:15;;;;;;;;;;;;;;;;;;5059341;28;19960;-39
2022/02/18 05:57:41;;;;;;;;;;;;;;;;;;5055596;28;20028;-40
2022/02/18 06:00:09;;;;;;;;;;;;;;;;;;5055866;28;19962;-38
2022/02/18 06:02:34;;;;;;;;;;;;;;;;;;5053618;28;19912;-39
2022/02/18 06:05:01;;;;;;;;;;;;;;;;;;5055278;28;19913;-41
2022/02/18 06:07:26;;;;;;;;;;;;;;;;;;5057429;28;19912;-41
2022/02/18 06:09:51;;;;;;;;;;;;;;;;;;5057761;28;19914;-41
2022/02/18 06:12:16;;;;;;;;;;;;;;;;;;5053393;28;19916;-39
2022/02/18 06:14:41;;;;;;;;;;;;;;;;;;5055710;28;19966;-39
2022/02/18 06:17:09;;;;;;;;;;;;;;;;;;5057636;28;19915;-40
2022/02/18 06:19:34;;;;;;;;;;;;;;;;;;5055229;28;19917;-39
2022/02/18 06:21:59;;;;;;;;;;;;;;;;;;5057526;28;19939;-39
2022/02/18 06:24:24;;;;;;;;;;;;;;;;;;5059702;28;20403;-38
2022/02/18 06:26:49;;;;;;;;;;;;;;;;;;5054105;28;19909;-40
2022/02/18 06:29:15;;;;;;;;;;;;;;;;;;5057969;28;19913;-39
2022/02/18 06:31:40;;;;;;;;;;;;;;;;;;5055170;28;19917;-38
2022/02/18 06:34:05;;;;;;;;;;;;;;;;;;5056255;28;20391;-38
2022/02/18 06:36:30;;;;;;;;;;;;;;;;;;5056945;28;19909;-43
2022/02/18 06:38:55;;;;;;;;;;;;;;;;;;5052585;28;19919;-42
2022/02/18 06:41:21;;;;;;;;;;;;;;;;;;5055459;28;20283;-46
2022/02/18 06:43:47;;;;;;;;;;;;;;;;;;5053963;28;19942;-41
2022/02/18 06:46:12;;;;;;;;;;;;;;;;;;5055412;28;19912;-41
2022/02/18 06:48:37;;;;;;;;;;;;;;;;;;5055025;28;20618;-43
2022/02/18 06:51:02;;;;;;;;;;;;;;;;;;5055123;28;19921;-45
2022/02/18 06:53:27;;;;;;;;;;;;;;;;;;5053758;28;20394;-42
2022/02/18 06:55:52;;;;;;;;;;;;;;;;;;5051905;28;19951;-44
2022/02/18 06:58:18;;;;;;;;;;;;;;;;;;5052301;28;19920;-44
2022/02/18 07:00:43;;;;;;;;;;;;;;;;;;5053244;28;19913;-44
2022/02/18 07:03:08;;;;;;;;;;;;;;;;;;5056130;28;19913;-43
2022/02/18 07:05:34;;;;;;;;;;;;;;;;;;5055278;28;19920;-45
2022/02/18 07:07:59;;;;;;;;;;;;;;;;;;5055087;28;19920;-43
2022/02/18 07:10:24;;;;;;;;;;;;;;;;;;5054429;28;19963;-42
2022/02/18 07:12:49;;;;;;;;;;;;;;;;;;5056658;28;19917;-43
2022/02/18 07:15:14;;;;;;;;;;;;;;;;;;5059211;28;19913;-41
2022/02/18 07:17:39;;;;;;;;;;;;;;;;;;5055355;28;20438;-42
2022/02/18 07:20:04;;;;;;;;;;;;;;;;;;5055944;28;19912;-48
2022/02/18 07:22:30;;;;;;;;;;;;;;;;;;5054739;28;20364;-41
2022/02/18 07:24:55;;;;;;;;;;;;;;;;;;5055515;28;20109;-42
2022/02/18 07:27:20;;;;;;;;;;;;;;;;;;5055612;28;19923;-43
2022/02/18 07:29:45;;;;;;;;;;;;;;;;;;5061133;28;20109;-44
2022/02/18 07:32:11;;;;;;;;;;;;;;;;;;5056217;28;19916;-43
2022/02/18 07:34:36;;;;;;;;;;;;;;;;;;5055278;28;19932;-43
2022/02/18 07:37:01;;;;;;;;;;;;;;;;;;5053853;28;19920;-43
2022/02/18 07:39:26;;;;;;;;;;;;;;;;;;5056178;28;19913;-41
2022/02/18 07:41:51;;;;;;;;;;;;;;;;;;5055499;28;20425;-42
2022/02/18 07:44:16;;;;;;;;;;;;;;;;;;5054650;28;20003;-34
2022/02/18 07:46:42;;;;;;;;;;;;;;;;;;5057583;28;19916;-40
2022/02/18 07:49:08;;;;;;;;;;;;;;;;;;5056157;28;19928;-39
2022/02/18 07:51:33;;;;;;;;;;;;;;;;;;5046697;28;20396;-42
2022/02/18 07:53:58;;;;;;;;;;;;;;;;;;5059770;28;20382;-40
2022/02/18 07:56:23;;;;;;;;;;;;;;;;;;5058808;28;19913;-42
2022/02/18 07:58:48;;;;;;;;;;;;;;;;;;5057484;28;19916;-41
2022/02/18 08:01:17;;;;;;;;;;;;;;;;;;5060429;28;19935;-40
2022/02/18 08:03:42;;;;;;;;;;;;;;;;;;5059285;28;19935;-42
2022/02/18 08:06:08;;;;;;;;;;;;;;;;;;5060917;28;20638;-42
2022/02/18 08:08:34;;;;;;;;;;;;;;;;;;5060357;28;19943;-46
2022/02/18 08:10:59;;;;;;;;;;;;;;;;;;5057186;28;20358;-41
2022/02/18 08:13:24;;;;;;;;;;;;;;;;;;5055442;28;19913;-44
2022/02/18 08:15:49;;;;;;;;;;;;;;;;;;5058369;28;19939;-43
2022/02/18 08:18:19;;;;;;;;;;;;;;;;;;5053703;28;19961;-41
2022/02/18 08:20:44;;;;;;;;;;;;;;;;;;5055837;28;19978;-41
2022/02/18 08:23:09;;;;;;;;;;;;;;;;;;5052938;28;20656;-42
2022/02/18 08:25:35;;;;;;;;;;;;;;;;;;5054259;28;19947;-42
2022/02/18 08:28:00;;;;;;;;;;;;;;;;;;5055531;28;19919;-40
2022/02/18 08:30:25;;;;;;;;;;;;;;;;;;5056209;28;19983;-43
2022/02/18 08:32:50;;;;;;;;;;;;;;;;;;5057621;28;19974;-41
2022/02/18 08:35:15;;;;;;;;;;;;;;;;;;5056243;28;19913;-41
2022/02/18 08:37:40;;;;;;;;;;;;;;;;;;5056522;28;20337;-41
2022/02/18 08:40:06;;;;;;;;;;;;;;;;;;5057760;28;20021;-42
2022/02/18 08:42:31;;;;;;;;;;;;;;;;;;5058257;28;20362;-44
2022/02/18 08:44:56;;;;;;;;;;;;;;;;;;5051808;28;19967;-41
2022/02/18 08:47:21;;;;;;;;;;;;;;;;;;5053427;28;19912;-44
2022/02/18 08:49:46;;;;;;;;;;;;;;;;;;5053224;28;19924;-42
2022/02/18 08:52:11;;;;;;;;;;;;;;;;;;5053413;28;19917;-42
2022/02/18 08:54:39;;;;;;;;;;;;;;;;;;5056756;28;19920;-45
2022/02/18 08:57:04;;;;;;;;;;;;;;;;;;5055709;28;20436;-43
2022/02/18 08:59:29;;;;;;;;;;;;;;;;;;5054381;28;19924;-43
2022/02/18 09:01:54;;;;;;;;;;;;;;;;;;5055544;28;20318;-41
2022/02/18 09:04:19;;;;;;;;;;;;;;;;;;5053373;28;20721;-47
2022/02/18 09:06:45;;;;;;;;;;;;;;;;;;5053730;28;19959;-46
2022/02/18 09:09:10;;;;;;;;;;;;;;;;;;5056164;28;20101;-44
2022/02/18 09:11:35;;;;;;;;;;;;;;;;;;5053267;28;19916;-42
2022/02/18 09:14:01;;;;;;;;;;;;;;;;;;5052194;28;19912;-44
2022/02/18 09:16:27;;;;;;;;;;;;;;;;;;5051627;28;19919;-44
2022/02/18 09:18:52;;;;;;;;;;;;;;;;;;5052383;28;19966;-44
2022/02/18 09:21:17;;;;;;;;;;;;;;;;;;5055059;28;19965;-43
2022/02/18 09:23:42;;;;;;;;;;;;;;;;;;5053486;28;20398;-44
2022/02/18 09:26:07;;;;;;;;;;;;;;;;;;5048894;28;19919;-46
2022/02/18 09:28:32;;;;;;;;;;;;;;;;;;5053958;28;20402;-41
2022/02/18 09:30:57;;;;;;;;;;;;;;;;;;5053795;28;19963;-44
2022/02/18 09:33:23;;;;;;;;;;;;;;;;;;5052244;28;19917;-44
2022/02/18 09:35:48;;;;;;;;;;;;;;;;;;5051035;28;19913;-43
2022/02/18 09:38:13;;;;;;;;;;;;;;;;;;5051762;28;19963;-43
2022/02/18 09:40:38;;;;;;;;;;;;;;;;;;5054789;28;20028;-45
2022/02/18 09:43:03;;;;;;;;;;;;;;;;;;5056104;28;19973;-43
2022/02/18 09:45:29;;;;;;;;;;;;;;;;;;5057377;28;19913;-45
2022/02/18 09:47:54;;;;;;;;;;;;;;;;;;5058658;28;20579;-44
2022/02/18 09:50:19;;;;;;;;;;;;;;;;;;5053446;28;20416;-42
2022/02/18 09:52:44;;;;;;;;;;;;;;;;;;5054903;28;20390;-45
2022/02/18 09:55:09;;;;;;;;;;;;;;;;;;5052426;28;19935;-42
2022/02/18 09:57:34;;;;;;;;;;;;;;;;;;5047820;28;19924;-48
2022/02/18 09:59:59;;;;;;;;;;;;;;;;;;5053485;28;20453;-44
2022/02/18 10:02:25;;;;;;;;;;;;;;;;;;5054856;28;19995;-43
2022/02/18 10:04:50;;;;;;;;;;;;;;;;;;5054432;28;19928;-45
2022/02/18 10:07:15;;;;;;;;;;;;;;;;;;5056006;28;19916;-48
2022/02/18 10:09:43;;;;;;;;;;;;;;;;;;5052758;28;19923;-44
2022/02/18 10:12:09;;;;;;;;;;;;;;;;;;5053464;28;19939;-45
2022/02/18 10:14:34;;;;;;;;;;;;;;;;;;5054733;28;20364;-46
2022/02/18 10:16:59;;;;;;;;;;;;;;;;;;5053139;28;20030;-43
2022/02/18 10:19:26;;;;;;;;;;;;;;;;;;5054345;28;20376;-48
2022/02/18 10:21:51;;;;;;;;;;;;;;;;;;5053641;28;19927;-42
2022/02/18 10:24:16;;;;;;;;;;;;;;;;;;5050405;28;19932;-44
2022/02/18 10:26:41;;;;;;;;;;;;;;;;;;5054016;28;19924;-45
2022/02/18 10:29:06;;;;;;;;;;;;;;;;;;5055620;28;20284;-48
2022/02/18 10:31:31;;;;;;;;;;;;;;;;;;5050932;28;20027;-45
2022/02/18 10:33:57;;;;;;;;;;;;;;;;;;5051304;28;19916;-43
2022/02/18 10:36:22;;;;;;;;;;;;;;;;;;5052806;28;20395;-43
2022/02/18 10:38:49;;;;;;;;;;;;;;;;;;5050212;28;19923;-45
2022/02/18 10:41:14;;;;;;;;;;;;;;;;;;5053381;28;19916;-44
2022/02/18 10:43:40;;;;;;;;;;;;;;;;;;5049710;28;19927;-44
2022/02/18 10:46:05;;;;;;;;;;;;;;;;;;5052742;28;19913;-43
2022/02/18 10:48:30;;;;;;;;;;;;;;;;;;5048945;28;19923;-44
2022/02/18 10:50:55;;;;;;;;;;;;;;;;;;5049408;28;19960;-48
2022/02/18 10:53:20;;;;;;;;;;;;;;;;;;5049446;28;20303;-47
2022/02/18 10:55:45;;;;;;;;;;;;;;;;;;5049509;28;19913;-45
2022/02/18 10:58:10;;;;;;;;;;;;;;;;;;5052137;28;20031;-48
2022/02/18 11:00:36;;;;;;;;;;;;;;;;;;5052211;28;20212;-47
2022/02/18 11:03:01;;;;;;;;;;;;;;;;;;5052798;28;19913;-46
2022/02/18 11:05:26;;;;;;;;;;;;;;;;;;5055916;28;19921;-44
2022/02/18 11:07:51;;;;;;;;;;;;;;;;;;5055320;28;19980;-45
2022/02/18 11:10:17;;;;;;;;;;;;;;;;;;5055611;28;19912;-43
2022/02/18 11:12:42;;;;;;;;;;;;;;;;;;5057140;28;20305;-47
2022/02/18 11:15:07;;;;;;;;;;;;;;;;;;5057236;28;19920;-47
2022/02/18 11:17:35;;;;;;;;;;;;;;;;;;5054578;28;19920;-45
2022/02/18 11:20:00;;;;;;;;;;;;;;;;;;5053848;28;19956;-47
2022/02/18 11:22:25;;;;;;;;;;;;;;;;;;5055960;28;20056;-47
2022/02/18 11:24:50;;;;;;;;;;;;;;;;;;5055087;28;19913;-47
2022/02/18 11:27:15;;;;;;;;;;;;;;;;;;5054398;28;20299;-50
2022/02/18 11:29:40;;;;;;;;;;;;;;;;;;5054215;28;20007;-46
2022/02/18 11:32:05;;;;;;;;;;;;;;;;;;5049694;28;20628;-48
2022/02/18 11:34:31;;;;;;;;;;;;;;;;;;5055184;28;19985;-47
2022/02/18 11:36:56;;;;;;;;;;;;;;;;;;5057634;28;20011;-50
2022/02/18 11:39:21;;;;;;;;;;;;;;;;;;5059481;28;20600;-48
2022/02/18 11:41:46;;;;;;;;;;;;;;;;;;5055492;28;19928;-49
2022/02/18 11:44:11;;;;;;;;;;;;;;;;;;5056005;28;19913;-46
2022/02/18 11:46:37;;;;;;;;;;;;;;;;;;5057311;28;19920;-45
2022/02/18 11:49:02;;;;;;;;;;;;;;;;;;5054186;28;20305;-47
2022/02/18 11:51:28;;;;;;;;;;;;;;;;;;5055482;28;20431;-45
2022/02/18 11:53:53;;;;;;;;;;;;;;;;;;5053941;28;19913;-45
2022/02/18 11:56:18;;;;;;;;;;;;;;;;;;5055107;28;19967;-45
2022/02/18 11:58:43;;;;;;;;;;;;;;;;;;5056966;28;19912;-47
2022/02/18 12:01:08;;;;;;;;;;;;;;;;;;5053988;28;20524;-46
2022/02/18 12:03:34;;;;;;;;;;;;;;;;;;5056368;28;19916;-50
2022/02/18 12:05:59;;;;;;;;;;;;;;;;;;5051580;28;20578;-48
2022/02/18 12:08:24;;;;;;;;;;;;;;;;;;5051624;28;19932;-49
2022/02/18 12:10:49;;;;;;;;;;;;;;;;;;5058281;28;19981;-46
2022/02/18 12:13:14;;;;;;;;;;;;;;;;;;5056535;28;19960;-50
2022/02/18 12:15:39;;;;;;;;;;;;;;;;;;5055613;28;19917;-52
2022/02/18 12:18:05;;;;;;;;;;;;;;;;;;5054778;28;20016;-47
2022/02/18 12:20:30;;;;;;;;;;;;;;;;;;5055322;28;19917;-46
2022/02/18 12:22:55;;;;;;;;;;;;;;;;;;5055457;28;19913;-47
2022/02/18 12:25:20;;;;;;;;;;;;;;;;;;5057530;28;20326;-48
2022/02/18 12:27:45;;;;;;;;;;;;;;;;;;5054942;28;19919;-50
2022/02/18 12:30:10;;;;;;;;;;;;;;;;;;5055975;28;19920;-45
2022/02/18 12:32:36;;;;;;;;;;;;;;;;;;5071324;28;19995;-46
2022/02/18 12:35:01;;;;;;;;;;;;;;;;;;5054310;28;19917;-46
2022/02/18 12:37:26;;;;;;;;;;;;;;;;;;5055567;28;20700;-45
2022/02/18 12:39:54;;;;;;;;;;;;;;;;;;5053431;28;19919;-44
2022/02/18 12:42:20;;;;;;;;;;;;;;;;;;5056353;28;19967;-47
2022/02/18 12:44:45;;;;;;;;;;;;;;;;;;5055651;28;19956;-46
2022/02/18 12:47:10;;;;;;;;;;;;;;;;;;5053360;28;19928;-45
2022/02/18 12:49:35;;;;;;;;;;;;;;;;;;5054748;28;19924;-44
2022/02/18 12:52:01;;;;;;;;;;;;;;;;;;5054178;28;20011;-48
2022/02/18 12:54:26;;;;;;;;;;;;;;;;;;5055274;28;19970;-48
2022/02/18 12:56:55;;;;;;;;;;;;;;;;;;5055075;28;20273;-48
2022/02/18 12:59:20;;;;;;;;;;;;;;;;;;5053188;28;19912;-48
2022/02/18 13:01:45;;;;;;;;;;;;;;;;;;5052146;28;19913;-49
2022/02/18 13:04:10;;;;;;;;;;;;;;;;;;5050565;28;19913;-47
2022/02/18 13:06:35;;;;;;;;;;;;;;;;;;5056377;28;19967;-49
2022/02/18 13:09:00;;;;;;;;;;;;;;;;;;5051586;28;20276;-45
2022/02/18 13:11:25;;;;;;;;;;;;;;;;;;5053282;28;19913;-51
2022/02/18 13:13:51;;;;;;;;;;;;;;;;;;5054479;28;20008;-50
2022/02/18 13:16:19;;;;;;;;;;;;;;;;;;5053478;28;20008;-51
2022/02/18 13:18:45;;;;;;;;;;;;;;;;;;5050606;28;19913;-44
2022/02/18 13:21:10;;;;;;;;;;;;;;;;;;5050466;28;20153;-49
2022/02/18 13:23:35;;;;;;;;;;;;;;;;;;5054061;28;19921;-49
2022/02/18 13:26:01;;;;;;;;;;;;;;;;;;5053212;28;19917;-48
2022/02/18 13:28:26;;;;;;;;;;;;;;;;;;5054447;28;19974;-48
2022/02/18 13:30:51;;;;;;;;;;;;;;;;;;5053474;28;19913;-44
2022/02/18 13:33:16;;;;;;;;;;;;;;;;;;5059574;28;19917;-45
2022/02/18 13:35:42;;;;;;;;;;;;;;;;;;5060722;28;19928;-46
2022/02/18 13:38:07;;;;;;;;;;;;;;;;;;5054870;28;19916;-47
2022/02/18 13:40:32;;;;;;;;;;;;;;;;;;5055008;28;20450;-45
2022/02/18 13:42:58;;;;;;;;;;;;;;;;;;5055188;28;19912;-47
2022/02/18 13:45:23;;;;;;;;;;;;;;;;;;5053323;28;19920;-47
2022/02/18 13:47:49;;;;;;;;;;;;;;;;;;5052641;28;20027;-46
2022/02/18 13:50:14;;;;;;;;;;;;;;;;;;5055815;28;20070;-46
2022/02/18 13:52:39;;;;;;;;;;;;;;;;;;5052692;28;19975;-48
2022/02/18 13:55:06;;;;;;;;;;;;;;;;;;5055782;28;20198;-47
2022/02/18 13:57:31;;;;;;;;;;;;;;;;;;5053701;28;19919;-44
2022/02/18 13:59:57;;;;;;;;;;;;;;;;;;5054157;28;19938;-48
2022/02/18 14:02:22;;;;;;;;;;;;;;;;;;5055716;28;20078;-44
2022/02/18 14:04:47;;;;;;;;;;;;;;;;;;5053373;28;19913;-50
2022/02/18 14:07:16;;;;;;;;;;;;;;;;;;5054066;28;20004;-51
2022/02/18 14:09:41;;;;;;;;;;;;;;;;;;5056154;28;20480;-44
2022/02/18 14:12:07;;;;;;;;;;;;;;;;;;5055793;28;20007;-46
2022/02/18 14:14:32;;;;;;;;;;;;;;;;;;5056032;28;19958;-46
2022/02/18 14:16:57;;;;;;;;;;;;;;;;;;5053636;28;19939;-44
2022/02/18 14:19:22;;;;;;;;;;;;;;;;;;5055797;28;19912;-46
2022/02/18 14:21:48;;;;;;;;;;;;;;;;;;5056715;28;19956;-46
2022/02/18 14:24:13;;;;;;;;;;;;;;;;;;5055019;28;20495;-47
2022/02/18 14:26:38;;;;;;;;;;;;;;;;;;5055620;28;19982;-48
2022/02/18 14:29:05;;;;;;;;;;;;;;;;;;5055360;28;20035;-49
2022/02/18 14:31:30;;;;;;;;;;;;;;;;;;5054398;28;20371;-48
2022/02/18 14:33:55;;;;;;;;;;;;;;;;;;5052294;28;19920;-48
2022/02/18 14:36:20;;;;;;;;;;;;;;;;;;5057919;28;20292;-52
2022/02/18 14:38:45;;;;;;;;;;;;;;;;;;5058370;28;20415;-49
2022/02/18 14:41:12;;;;;;;;;;;;;;;;;;5058557;28;19974;-52
2022/02/18 14:43:37;;;;;;;;;;;;;;;;;;5059319;28;19912;-47
2022/02/18 14:46:02;;;;;;;;;;;;;;;;;;5058835;28;19943;-48
2022/02/18 14:48:28;;;;;;;;;;;;;;;;;;5057393;28;19913;-48
2022/02/18 14:50:53;;;;;;;;;;;;;;;;;;5057427;28;19981;-57
2022/02/18 14:53:19;;;;;;;;;;;;;;;;;;5061654;28;19920;-56
2022/02/18 14:55:44;;;;;;;;;;;;;;;;;;5063340;28;20027;-57
2022/02/18 14:58:09;;;;;;;;;;;;;;;;;;5062646;28;20244;-57
2022/02/18 15:00:34;;;;;;;;;;;;;;;;;;5058653;28;19959;-56
2022/02/18 15:03:01;;;;;;;;;;;;;;;;;;5058166;28;19921;-55
2022/02/18 15:05:26;;;;;;;;;;;;;;;;;;5058881;28;19923;-55
2022/02/18 15:07:52;;;;;;;;;;;;;;;;;;5057574;28;19920;-57
2022/02/18 15:10:17;;;;;;;;;;;;;;;;;;5059428;28;19916;-57
2022/02/18 15:12:43;;;;;;;;;;;;;;;;;;5059122;28;20359;-57
2022/02/18 15:15:08;;;;;;;;;;;;;;;;;;5058696;28;19922;-57
2022/02/18 15:17:33;;;;;;;;;;;;;;;;;;5056933;28;20382;-57
2022/02/18 15:19:59;;;;;;;;;;;;;;;;;;5058727;28;19923;-57
2022/02/18 15:22:24;;;;;;;;;;;;;;;;;;5057892;28;19923;-56
2022/02/18 15:24:49;;;;;;;;;;;;;;;;;;5058154;28;19917;-57
2022/02/18 15:27:14;;;;;;;;;;;;;;;;;;5058654;28;19916;-57
2022/02/18 15:35:08;;;;;;;;;;;;;;;;;;5056349;28;19955;-53
2022/02/18 15:37:33;;;;;;;;;;;;;;;;;;5060091;28;19960;-51
2022/02/18 15:42:42;;;;;;;;;;;;;;;;;;5055768;28;19963;-47
2022/02/18 15:45:07;;;;;;;;;;;;;;;;;;5055068;28;20325;-48
2022/02/18 15:47:32;;;;;;;;;;;;;;;;;;5053186;28;19913;-53
2022/02/18 15:49:58;;;;;;;;;;;;;;;;;;5054910;28;19925;-50
2022/02/18 15:52:24;;;;;;;;;;;;;;;;;;5055697;28;19917;-49
2022/02/18 15:54:49;;;;;;;;;;;;;;;;;;5054290;28;19913;-49
2022/02/18 15:57:14;;;;;;;;;;;;;;;;;;5054459;28;19919;-47
2022/02/18 15:59:39;;;;;;;;;;;;;;;;;;5051652;28;19940;-50
2022/02/18 16:02:06;;;;;;;;;;;;;;;;;;5053008;28;19913;-49
2022/02/18 16:06:56;;;;;;;;;;;;;;;;;;5054418;28;19959;-51
2022/02/18 16:09:21;;;;;;;;;;;;;;;;;;5053384;28;20351;-49
2022/02/18 16:11:46;;;;;;;;;;;;;;;;;;5056244;28;19916;-47
2022/02/18 16:14:11;;;;;;;;;;;;;;;;;;5056866;28;20394;-44
2022/02/18 16:16:37;;;;;;;;;;;;;;;;;;5056194;28;19948;-47
2022/02/18 16:19:02;;;;;;;;;;;;;;;;;;5054969;28;20272;-48
2022/02/18 16:21:27;;;;;;;;;;;;;;;;;;5053727;28;19952;-47
2022/02/18 16:23:52;;;;;;;;;;;;;;;;;;5056692;28;19909;-47
2022/02/18 16:26:17;;;;;;;;;;;;;;;;;;5056255;28;19912;-48
2022/02/18 16:28:42;;;;;;;;;;;;;;;;;;5055376;28;20301;-45
2022/02/18 16:31:07;;;;;;;;;;;;;;;;;;5056143;28;20007;-48
2022/02/18 16:33:33;;;;;;;;;;;;;;;;;;5052906;28;19924;-46
2022/02/18 16:35:58;;;;;;;;;;;;;;;;;;5055806;28;20379;-47
2022/02/18 16:38:23;;;;;;;;;;;;;;;;;;5055075;28;20153;-45
2022/02/18 16:40:48;;;;;;;;;;;;;;;;;;5054163;28;19916;-47
2022/02/18 16:43:13;;;;;;;;;;;;;;;;;;5056653;28;19913;-44